Arklow Wind — EIKZ — position and weather

sailwx.info

Track history (hours):
 
Tides and Currents Weather Stations Pressure Air Temp Water Temp Dewpoint Dewpoint Depression Visibility Wind Speed Wind Dir Waves Ship Positions

Arklow Wind

Last reported at 2015-Feb-28 00:31 UTC. Time now 2015-Feb-28 00:40 UTC.
Position N 51°09' E 003°48'.

Length 136 m; draft 4.9 m.

Type: Cargo ship. MMSI: 250506000.

Date/timePositionNaut miles runAvg speedWind from/ knotsBaromVisibWave heightAir tempDewpointWater temp
2015-Feb-28 00:31N 51°09' E 003°48'0 0.0
2015-Feb-27 23:31N 51°09' E 003°48'0 0.0
2015-Feb-27 22:28N 51°09' E 003°48'0 0.0
2015-Feb-27 21:31N 51°09' E 003°48'0 0.0
2015-Feb-27 20:28N 51°09' E 003°48'0 0.0
2015-Feb-27 19:28N 51°09' E 003°48'0 0.0
2015-Feb-27 18:34N 51°09' E 003°48'0 0.0
2015-Feb-27 17:25N 51°09' E 003°48'0 0.0
2015-Feb-27 16:33N 51°09' E 003°48'0 0.0
2015-Feb-27 15:33N 51°09' E 003°48'0 0.0
2015-Feb-27 14:33N 51°09' E 003°48'0 0.0
2015-Feb-27 13:33N 51°09' E 003°48'0 0.0
2015-Feb-27 12:33N 51°09' E 003°48'0 0.0
2015-Feb-27 11:33N 51°09' E 003°48'0 0.0
2015-Feb-27 10:33N 51°09' E 003°48'0 0.0
2015-Feb-27 09:33N 51°09' E 003°48'1 0.7
2015-Feb-27 08:34N 51°09' E 003°47'7 6.6
2015-Feb-27 07:33N 51°16' E 003°50'4 4.0
2015-Feb-27 06:33N 51°20' E 003°49'1 0.8
2015-Feb-27 05:33N 51°20' E 003°49'8 7.8
2015-Feb-27 04:33N 51°26' E 003°40'7 7.5
2015-Feb-27 03:33N 51°29' E 003°29'1110.5
2015-Feb-27 02:33N 51°38' E 003°20'10 9.9
2015-Feb-27 01:33N 51°44' E 003°08'1510.4
2015-Feb-27 00:04N 51°46' E 002°43'3913.8
2015-Feb-26 21:13N 52°21' E 002°14'913.7
2015-Feb-26 20:34N 52°29' E 002°09'1413.5
2015-Feb-26 19:33N 52°42' E 002°01'1413.5
2015-Feb-26 18:33N 52°51' E 001°44'1514.7
2015-Feb-26 17:33N 53°02' E 001°28'1515.2
2015-Feb-26 16:33N 53°15' E 001°15'3015.1
2015-Feb-26 14:32N 53°41' E 000°48'1515.2
2015-Feb-26 13:33N 53°54' E 000°35'1515.5
2015-Feb-26 12:34N 54°06' E 000°20'1615.7
2015-Feb-26 11:33N 54°17' W 000°00'1615.8
2015-Feb-26 10:34N 54°28' W 000°18'1615.9
2015-Feb-26 09:32N 54°39' W 000°39'1616.0
2015-Feb-26 08:33N 54°51' W 000°58'1614.2
2015-Feb-26 07:27N 55°01' W 001°18'  
2015-Feb-22 04:07N 55°08' W 001°31'7 0.3
2015-Feb-21 08:29N 55°05' W 001°21'9 9.4
2015-Feb-21 07:33N 54°58' W 001°11'9 9.1
2015-Feb-21 06:33N 54°52' W 000°59'9 9.4
2015-Feb-21 05:33N 54°45' W 000°48'10 9.7
2015-Feb-21 04:33N 54°38' W 000°36'9 8.7
2015-Feb-21 03:33N 54°32' W 000°26'9 9.4
2015-Feb-21 02:33N 54°26' W 000°13'1111.0
2015-Feb-21 01:33N 54°20' E 000°02'1212.1
2015-Feb-21 00:33N 54°10' E 000°15'1312.5
2015-Feb-20 23:34N 54°00' E 000°28'1312.7
2015-Feb-20 22:32N 53°50' E 000°41'5210.4
2015-Feb-20 17:33N 53°05' E 001°25'1211.8
2015-Feb-20 16:34N 52°56' E 001°37'1514.5
2015-Feb-20 15:33N 52°46' E 001°55'1515.2
2015-Feb-20 14:33N 52°31' E 001°58'1514.6
2015-Feb-20 13:32N 52°17' E 001°53'1313.6
2015-Feb-20 12:33N 52°04' E 001°50'1212.2
2015-Feb-20 11:33N 51°51' E 001°48'1111.2
2015-Feb-20 10:33N 51°40' E 001°49'1010.3
2015-Feb-20 09:33N 51°30' E 001°46'10 9.8
2015-Feb-20 08:33N 51°21' E 001°42'10 9.7
2015-Feb-20 07:33N 51°12' E 001°37'8 8.3
2015-Feb-20 06:33N 51°03' E 001°36'1110.7
2015-Feb-20 05:34N 50°55' E 001°26'  
Track history (hours):
 
Tides and Currents Weather Stations Pressure Air Temp Water Temp Dewpoint Dewpoint Depression Visibility Wind Speed Wind Dir Waves Ship Positions

Arklow Wind

Last reported at 2015-Feb-28 00:31 UTC. Time now 2015-Feb-28 00:40 UTC.
Position N 51°09' E 003°48'.

Length 136 m; draft 4.9 m.

Type: Cargo ship. MMSI: 250506000.

Date/timePositionNaut miles runAvg speedWind from/ knotsBaromVisibWave heightAir tempDewpointWater temp
2015-Feb-28 00:31N 51°09' E 003°48'0 0.0
2015-Feb-27 23:31N 51°09' E 003°48'0 0.0
2015-Feb-27 22:28N 51°09' E 003°48'0 0.0
2015-Feb-27 21:31N 51°09' E 003°48'0 0.0
2015-Feb-27 20:28N 51°09' E 003°48'0 0.0
2015-Feb-27 19:28N 51°09' E 003°48'0 0.0
2015-Feb-27 18:34N 51°09' E 003°48'0 0.0
2015-Feb-27 17:25N 51°09' E 003°48'0 0.0
2015-Feb-27 16:33N 51°09' E 003°48'0 0.0
2015-Feb-27 15:33N 51°09' E 003°48'0 0.0
2015-Feb-27 14:33N 51°09' E 003°48'0 0.0
2015-Feb-27 13:33N 51°09' E 003°48'0 0.0
2015-Feb-27 12:33N 51°09' E 003°48'0 0.0
2015-Feb-27 11:33N 51°09' E 003°48'0 0.0
2015-Feb-27 10:33N 51°09' E 003°48'0 0.0
2015-Feb-27 09:33N 51°09' E 003°48'1 0.7
2015-Feb-27 08:34N 51°09' E 003°47'7 6.6
2015-Feb-27 07:33N 51°16' E 003°50'4 4.0
2015-Feb-27 06:33N 51°20' E 003°49'1 0.8
2015-Feb-27 05:33N 51°20' E 003°49'8 7.8
2015-Feb-27 04:33N 51°26' E 003°40'7 7.5
2015-Feb-27 03:33N 51°29' E 003°29'1110.5
2015-Feb-27 02:33N 51°38' E 003°20'10 9.9
2015-Feb-27 01:33N 51°44' E 003°08'1510.4
2015-Feb-27 00:04N 51°46' E 002°43'3913.8
2015-Feb-26 21:13N 52°21' E 002°14'913.7
2015-Feb-26 20:34N 52°29' E 002°09'1413.5
2015-Feb-26 19:33N 52°42' E 002°01'1413.5
2015-Feb-26 18:33N 52°51' E 001°44'1514.7
2015-Feb-26 17:33N 53°02' E 001°28'1515.2
2015-Feb-26 16:33N 53°15' E 001°15'3015.1
2015-Feb-26 14:32N 53°41' E 000°48'1515.2
2015-Feb-26 13:33N 53°54' E 000°35'1515.5
2015-Feb-26 12:34N 54°06' E 000°20'1615.7
2015-Feb-26 11:33N 54°17' W 000°00'1615.8
2015-Feb-26 10:34N 54°28' W 000°18'1615.9
2015-Feb-26 09:32N 54°39' W 000°39'1616.0
2015-Feb-26 08:33N 54°51' W 000°58'1614.2
2015-Feb-26 07:27N 55°01' W 001°18'  
2015-Feb-22 04:07N 55°08' W 001°31'7 0.3
2015-Feb-21 08:29N 55°05' W 001°21'9 9.4
2015-Feb-21 07:33N 54°58' W 001°11'9 9.1
2015-Feb-21 06:33N 54°52' W 000°59'9 9.4
2015-Feb-21 05:33N 54°45' W 000°48'10 9.7
2015-Feb-21 04:33N 54°38' W 000°36'9 8.7
2015-Feb-21 03:33N 54°32' W 000°26'9 9.4
2015-Feb-21 02:33N 54°26' W 000°13'1111.0
2015-Feb-21 01:33N 54°20' E 000°02'1212.1
2015-Feb-21 00:33N 54°10' E 000°15'1312.5
2015-Feb-20 23:34N 54°00' E 000°28'1312.7
2015-Feb-20 22:32N 53°50' E 000°41'5210.4
2015-Feb-20 17:33N 53°05' E 001°25'1211.8
2015-Feb-20 16:34N 52°56' E 001°37'1514.5
2015-Feb-20 15:33N 52°46' E 001°55'1515.2
2015-Feb-20 14:33N 52°31' E 001°58'1514.6
2015-Feb-20 13:32N 52°17' E 001°53'1313.6
2015-Feb-20 12:33N 52°04' E 001°50'1212.2
2015-Feb-20 11:33N 51°51' E 001°48'1111.2
2015-Feb-20 10:33N 51°40' E 001°49'1010.3
2015-Feb-20 09:33N 51°30' E 001°46'10 9.8
2015-Feb-20 08:33N 51°21' E 001°42'10 9.7
2015-Feb-20 07:33N 51°12' E 001°37'8 8.3
2015-Feb-20 06:33N 51°03' E 001°36'1110.7
2015-Feb-20 05:34N 50°55' E 001°26'  

Dump ship's entire track history